NCAR-RAP Real-Time Weather Data

Output produced by METARs form (24 April 2018  16:12 UTC)
found at http://weather.rap.ucar.edu/surface/
 
RJBE 241200Z VRB06KT 9999 -SHRA FEW012 BKN020 18/17 Q1005
RJBE 241100Z 05007KT 9999 -SHRA FEW015 BKN020 BKN035 18/17 Q1006
RJBE 241000Z 06007KT 9999 -SHRA FEW015 BKN030 BKN040 18/17 Q1006
RJBE 240900Z 06008KT 7000 -SHRA FEW015 BKN030 BKN045 18/17 Q1006
RJBE 240800Z 07008KT 7000 -SHRA FEW008 SCT020 BKN030 18/17 Q1007
RJBE 240700Z 06004KT 8000 -SHRA FEW008 SCT020 BKN030 18/17 Q1008
RJBE 240600Z 07007KT 9999 -SHRA FEW008 SCT020 BKN030 18/17 Q1008
RJBE 240500Z 08005KT 8000 -SHRA FEW008 SCT020 BKN030 18/17 Q1009
RJBE 240400Z VRB01KT 6000 -SHRA FEW020 SCT040 BKN060 18/16 Q1010
RJBE 240300Z VRB01KT 4500 R09/1800D -SHRA BR FEW020 BKN030 17/16 Q1011
RJBE 240200Z 23007KT 8000 -SHRA FEW020 BKN035 BKN060 17/15 Q1012
RJBE 240100Z 17016KT 9999 -SHRA FEW025 SCT035 BKN060 18/14 Q1012
RJBE 240000Z 10005KT 9999 VCSH FEW025 SCT045 BKN060 20/15 Q1012
RJBE 232300Z 15005KT 9999 -RA FEW025 SCT050 BKN080 18/15 Q1013
RJBE 232200Z 13008KT 9999 -RA FEW030 SCT050 BKN080 18/14 Q1013
RJBE 231200Z 17003KT 9999 FEW045 SCT060 BKN160 18/14 Q1017
RJBE 231100Z 25004KT 9999 FEW040 BKN160 BKN/// 17/13 Q1017
RJBE 231000Z 22010KT 9999 FEW040 BKN150 BKN/// 17/13 Q1016
RJBE 230900Z 23013KT 9999 FEW040 SCT100 BKN150 18/13 Q1016
RJBE 230800Z 23016KT 9999 FEW040 BKN150 BKN/// 18/13 Q1015
RJBE 230700Z 23016KT 9999 FEW040 SCT150 BKN/// 19/13 Q1016
RJBE 230600Z 24014KT 9999 FEW040 BKN/// 20/13 Q1016
RJBE 230500Z 25011KT 9999 FEW040 SCT170 BKN/// 20/13 Q1016
RJBE 230400Z 26010KT 9999 FEW040 BKN/// 21/12 Q1017
RJBE 230300Z 26008KT 9999 FEW040 BKN/// 22/12 Q1017
RJBE 230200Z 28005KT 240V320 9999 FEW040 BKN/// 21/12 Q1018
RJBE 230100Z VRB02KT 9999 FEW040 BKN/// 21/12 Q1018
RJBE 230000Z 11002KT 9999 FEW040 BKN/// 19/14 Q1019
RJBE 222300Z 11004KT 9999 FEW040 SCT/// 18/14 Q1019
RJBE 222200Z 14002KT CAVOK 17/13 Q1019
RJBE 221200Z 30008KT CAVOK 18/14 Q1018
RJBE 221100Z 30009KT CAVOK 18/14 Q1018
RJBE 221000Z 29008KT CAVOK 18/13 Q1017
RJBE 220900Z 27006KT CAVOK 18/14 Q1017
RJBE 220800Z 26008KT CAVOK 19/13 Q1017
RJBE 220700Z 26009KT CAVOK 20/14 Q1017
RJBE 220600Z 24009KT CAVOK 18/14 Q1018
RJBE 220500Z 25009KT 9999 FEW040 BKN/// 20/14 Q1018